createdAt,value
2022-11-10T00:02:44.214Z,23.30
2022-11-10T00:05:31.900Z,23.40
2022-11-10T00:08:20.266Z,23.30
2022-11-10T00:11:08.762Z,23.30
2022-11-10T00:14:13.512Z,23.30
2022-11-10T00:17:04.780Z,23.30
2022-11-10T00:19:52.715Z,23.30
2022-11-10T00:22:41.275Z,23.30
2022-11-10T00:25:33.703Z,23.30
2022-11-10T00:28:20.728Z,23.20
2022-11-10T00:31:09.083Z,23.20
2022-11-10T00:33:56.042Z,23.20
2022-11-10T00:36:43.496Z,23.20
2022-11-10T00:39:30.233Z,23.20
2022-11-10T00:42:18.644Z,23.20
2022-11-10T00:45:07.493Z,23.20
2022-11-10T00:47:54.254Z,23.20
2022-11-10T00:50:41.175Z,23.10
2022-11-10T00:53:28.405Z,23.10
2022-11-10T00:56:15.293Z,23.20
2022-11-10T00:59:03.840Z,23.20
2022-11-10T01:01:51.054Z,23.20
2022-11-10T01:04:38.168Z,23.20
2022-11-10T01:07:25.115Z,23.20
2022-11-10T01:10:12.079Z,23.20
2022-11-10T01:12:59.168Z,23.20
2022-11-10T01:15:47.518Z,23.20
2022-11-10T01:18:35.146Z,23.20
2022-11-10T01:21:23.358Z,23.20
2022-11-10T01:24:10.424Z,23.20
2022-11-10T01:26:57.597Z,23.10
2022-11-10T01:29:44.740Z,23.10
2022-11-10T01:32:33.713Z,23.10
2022-11-10T01:35:21.865Z,23.10
2022-11-10T01:38:08.932Z,23.10
2022-11-10T01:40:56.243Z,23.10
2022-11-10T01:43:43.493Z,23.10
2022-11-10T01:46:30.666Z,23.10
2022-11-10T01:49:22.314Z,23.10
2022-11-10T01:52:12.517Z,23.20
2022-11-10T01:54:59.860Z,23.20
2022-11-10T01:57:50.723Z,23.20
2022-11-10T02:00:37.891Z,23.20
2022-11-10T02:03:31.775Z,23.10
2022-11-10T02:06:25.210Z,23.10
2022-11-10T02:09:13.066Z,22.70
2022-11-10T02:11:59.937Z,23.10
2022-11-10T02:14:46.962Z,23.10
2022-11-10T02:17:34.492Z,23.10
2022-11-10T02:20:23.104Z,23.00
2022-11-10T02:23:36.619Z,23.10
2022-11-10T02:26:30.265Z,23.10
2022-11-10T02:29:17.443Z,23.00
2022-11-10T02:32:04.315Z,23.00
2022-11-10T02:34:51.481Z,23.00
2022-11-10T02:37:38.670Z,23.00
2022-11-10T02:40:25.845Z,23.00
2022-11-10T02:43:18.277Z,23.10
2022-11-10T02:46:05.764Z,23.00
2022-11-10T02:48:53.025Z,23.20
2022-11-10T02:51:39.826Z,23.00
2022-11-10T02:54:26.611Z,23.00
2022-11-10T02:57:13.683Z,23.00
2022-11-10T03:00:02.431Z,23.00
2022-11-10T03:02:49.771Z,23.00
2022-11-10T03:05:37.020Z,23.00
2022-11-10T03:08:24.062Z,23.00
2022-11-10T03:11:11.244Z,23.20
2022-11-10T03:14:01.967Z,23.00
2022-11-10T03:16:51.121Z,22.90
2022-11-10T03:19:38.413Z,23.00
2022-11-10T03:22:25.299Z,23.00
2022-11-10T03:25:13.218Z,23.00
2022-11-10T03:28:00.196Z,23.00
2022-11-10T03:30:47.692Z,23.00
2022-11-10T03:33:36.627Z,23.00
2022-11-10T03:36:23.852Z,23.00
2022-11-10T03:39:10.543Z,23.10
2022-11-10T03:41:57.485Z,23.10
2022-11-10T03:44:44.707Z,23.10
2022-11-10T03:47:31.738Z,23.10
2022-11-10T03:50:20.202Z,23.10
2022-11-10T03:53:07.699Z,23.10
2022-11-10T03:55:54.896Z,23.00
2022-11-10T03:58:42.805Z,23.10
2022-11-10T04:01:29.861Z,23.00
2022-11-10T04:04:31.115Z,23.00
2022-11-10T04:07:37.255Z,23.00
2022-11-10T04:10:24.685Z,23.00
2022-11-10T04:13:29.642Z,23.00
2022-11-10T04:16:16.857Z,22.90
2022-11-10T04:19:04.082Z,23.00
2022-11-10T04:21:51.248Z,22.90
2022-11-10T04:24:39.741Z,23.00
2022-11-10T04:27:26.862Z,22.90
2022-11-10T04:30:14.230Z,22.90
2022-11-10T04:33:01.264Z,22.90
2022-11-10T04:35:48.561Z,22.90
2022-11-10T04:38:35.896Z,23.00
2022-11-10T04:41:24.958Z,23.20
2022-11-10T04:44:11.735Z,22.50
2022-11-10T04:46:59.017Z,23.10
2022-11-10T04:49:45.606Z,23.30
2022-11-10T04:52:32.727Z,23.20
2022-11-10T04:55:19.984Z,23.30
2022-11-10T04:58:08.442Z,23.30
2022-11-10T05:00:55.588Z,23.30
2022-11-10T05:03:43.185Z,23.30
2022-11-10T05:06:30.068Z,23.30
2022-11-10T05:09:16.787Z,23.50
2022-11-10T05:12:05.466Z,23.50
2022-11-10T05:14:53.727Z,23.30
2022-11-10T05:17:40.836Z,23.30
2022-11-10T05:20:28.341Z,23.30
2022-11-10T05:23:33.173Z,23.30
2022-11-10T05:26:20.670Z,23.20
2022-11-10T05:29:07.577Z,23.30
2022-11-10T05:31:56.095Z,23.20
2022-11-10T05:34:43.028Z,23.20
2022-11-10T05:37:29.860Z,23.20
2022-11-10T05:40:17.749Z,23.20
2022-11-10T05:43:05.001Z,23.20
2022-11-10T05:45:52.071Z,23.20
2022-11-10T05:48:40.649Z,23.10
2022-11-10T05:51:27.448Z,23.10
2022-11-10T05:54:14.203Z,23.10
2022-11-10T05:57:01.139Z,23.10
2022-11-10T05:59:48.374Z,23.10
2022-11-10T06:02:35.813Z,23.10
2022-11-10T06:05:29.706Z,23.10
2022-11-10T06:08:19.077Z,23.10
2022-11-10T06:11:06.635Z,23.30
2022-11-10T06:13:53.772Z,23.00
2022-11-10T06:16:41.092Z,23.00
2022-11-10T06:19:28.253Z,23.00
2022-11-10T06:22:16.504Z,23.10
2022-11-10T06:25:04.396Z,23.00
2022-11-10T06:27:51.881Z,23.10
2022-11-10T06:30:40.288Z,23.10
2022-11-10T06:33:27.064Z,23.10
2022-11-10T06:36:14.291Z,23.10
2022-11-10T06:39:03.443Z,23.10
2022-11-10T06:41:51.290Z,23.10
2022-11-10T06:44:38.574Z,23.10
2022-11-10T06:47:26.835Z,23.10
2022-11-10T06:50:14.325Z,23.00
2022-11-10T06:53:03.462Z,23.00
2022-11-10T06:55:52.245Z,23.00
2022-11-10T06:58:39.505Z,23.00
2022-11-10T07:01:26.743Z,23.00
2022-11-10T07:04:20.526Z,23.00
2022-11-10T07:07:08.358Z,23.00
2022-11-10T07:09:56.037Z,23.00
2022-11-10T07:12:44.415Z,23.10
2022-11-10T07:15:31.785Z,23.10
2022-11-10T07:18:18.989Z,23.10
2022-11-10T07:21:07.069Z,23.10
2022-11-10T07:23:53.909Z,23.10
2022-11-10T07:26:41.376Z,23.00
2022-11-10T07:29:29.505Z,23.10
2022-11-10T07:32:16.139Z,23.00
2022-11-10T07:35:03.472Z,23.00
2022-11-10T07:37:50.495Z,23.00
2022-11-10T07:40:37.925Z,23.00
2022-11-10T07:43:26.516Z,23.00
2022-11-10T07:46:14.537Z,23.00
2022-11-10T07:49:01.272Z,22.90
2022-11-10T07:51:48.294Z,23.00
2022-11-10T07:54:35.352Z,22.80
2022-11-10T07:57:22.498Z,22.90
2022-11-10T08:00:12.572Z,22.90
2022-11-10T08:03:06.391Z,22.90
2022-11-10T08:05:53.305Z,23.00
2022-11-10T08:08:40.354Z,23.00
2022-11-10T08:11:27.781Z,22.90
2022-11-10T08:14:14.772Z,22.90
2022-11-10T08:17:01.868Z,22.90
2022-11-10T08:19:50.372Z,22.80
2022-11-10T08:22:37.397Z,22.90
2022-11-10T08:25:24.599Z,22.90
2022-11-10T08:28:14.411Z,22.80
2022-11-10T08:31:06.153Z,22.80
2022-11-10T08:33:53.475Z,22.80
2022-11-10T08:36:42.266Z,22.80
2022-11-10T08:39:38.717Z,22.80
2022-11-10T08:42:26.511Z,22.80
2022-11-10T08:45:13.765Z,22.80
2022-11-10T08:48:01.451Z,22.80
2022-11-10T08:50:49.766Z,22.80
2022-11-10T08:53:38.462Z,22.80
2022-11-10T08:56:25.338Z,22.40
2022-11-10T08:59:12.503Z,22.80
2022-11-10T09:01:59.985Z,22.70
2022-11-10T09:04:47.108Z,22.80
2022-11-10T09:07:35.930Z,22.80
2022-11-10T09:10:24.418Z,22.80
2022-11-10T09:13:13.010Z,22.80
2022-11-10T09:16:03.197Z,22.80
2022-11-10T09:18:50.032Z,22.90
2022-11-10T09:21:37.307Z,22.90
2022-11-10T09:24:30.060Z,22.90
2022-11-10T09:27:20.226Z,22.90
2022-11-10T09:30:13.100Z,22.80
2022-11-10T09:33:04.859Z,22.80
2022-11-10T09:35:52.458Z,22.80
2022-11-10T09:38:39.319Z,22.90
2022-11-10T09:41:29.797Z,22.80
2022-11-10T09:44:25.579Z,22.80
2022-11-10T09:47:42.432Z,22.80
2022-11-10T09:50:35.053Z,22.80
2022-11-10T09:53:26.195Z,22.80
2022-11-10T09:56:20.363Z,22.80
2022-11-10T09:59:25.935Z,22.80
2022-11-10T10:02:24.827Z,22.80
2022-11-10T10:05:51.545Z,22.80
2022-11-10T10:08:59.468Z,22.80
2022-11-10T10:12:00.441Z,22.80
2022-11-10T10:15:12.988Z,23.00
2022-11-10T10:18:20.305Z,22.90
2022-11-10T10:21:24.961Z,22.80
2022-11-10T10:24:21.560Z,22.80
2022-11-10T10:27:22.245Z,22.80
2022-11-10T10:30:17.454Z,22.70
2022-11-10T10:33:17.082Z,22.80
2022-11-10T10:36:10.727Z,22.80
2022-11-10T10:39:02.067Z,22.80
2022-11-10T10:41:49.255Z,22.70
2022-11-10T10:44:35.984Z,22.80
2022-11-10T10:47:38.123Z,22.70
2022-11-10T10:50:30.285Z,22.70
2022-11-10T10:53:20.234Z,22.80
2022-11-10T10:56:15.587Z,22.70
2022-11-10T10:59:05.945Z,22.70
2022-11-10T11:01:55.572Z,22.70
2022-11-10T11:04:44.167Z,22.80
2022-11-10T11:07:31.331Z,22.80
2022-11-10T11:10:24.342Z,22.80
2022-11-10T11:13:17.196Z,22.90
2022-11-10T11:16:07.224Z,22.80
2022-11-10T11:18:54.289Z,22.90
2022-11-10T11:22:06.105Z,22.80
2022-11-10T11:25:02.639Z,22.80
2022-11-10T11:28:04.221Z,22.80
2022-11-10T11:31:06.182Z,22.80
2022-11-10T11:34:02.193Z,22.80
2022-11-10T11:37:05.364Z,22.80
2022-11-10T11:40:06.440Z,22.80
2022-11-10T11:43:08.830Z,22.80
2022-11-10T11:46:04.471Z,22.80
2022-11-10T11:48:57.521Z,22.80
2022-11-10T11:51:54.328Z,22.80
2022-11-10T11:55:01.984Z,22.80
2022-11-10T11:58:17.152Z,22.80
2022-11-10T12:01:35.769Z,23.00
2022-11-10T12:04:53.658Z,22.80
2022-11-10T12:07:55.378Z,22.80
2022-11-10T12:10:53.651Z,22.90
2022-11-10T12:13:57.173Z,22.80
2022-11-10T12:16:54.185Z,22.80
2022-11-10T12:19:50.153Z,22.90
2022-11-10T12:22:48.102Z,22.90
2022-11-10T12:25:47.391Z,22.80
2022-11-10T12:28:40.698Z,22.80
2022-11-10T12:31:32.819Z,22.80
2022-11-10T12:34:29.930Z,22.80
2022-11-10T12:37:27.982Z,22.80
2022-11-10T12:40:18.715Z,22.80
2022-11-10T12:43:18.978Z,22.90
2022-11-10T12:46:09.699Z,22.80
2022-11-10T12:49:13.045Z,22.80
2022-11-10T12:52:11.109Z,22.80
2022-11-10T12:54:58.239Z,22.80
2022-11-10T12:57:46.074Z,22.80
2022-11-10T13:00:41.313Z,22.80
2022-11-10T13:03:32.369Z,22.70
2022-11-10T13:06:29.603Z,22.80
2022-11-10T13:09:28.997Z,22.90
2022-11-10T13:12:22.702Z,22.90
2022-11-10T13:15:49.436Z,22.90
2022-11-10T13:19:01.593Z,22.90
2022-11-10T13:22:12.987Z,22.80
2022-11-10T13:25:53.358Z,22.90
2022-11-10T13:29:29.260Z,22.90
2022-11-10T13:32:32.384Z,22.90
2022-11-10T13:35:55.177Z,22.90
2022-11-10T13:38:44.248Z,22.80
2022-11-10T13:41:34.366Z,22.90
2022-11-10T13:44:26.117Z,22.90
2022-11-10T13:47:53.737Z,22.80
2022-11-10T13:50:55.363Z,22.80
2022-11-10T13:53:56.008Z,22.80
2022-11-10T13:57:04.779Z,22.80
2022-11-10T13:59:56.503Z,22.80
2022-11-10T14:02:54.962Z,22.80
2022-11-10T14:06:13.575Z,22.80
2022-11-10T14:09:07.676Z,22.80
2022-11-10T14:11:59.885Z,22.90
2022-11-10T14:14:55.605Z,22.80
2022-11-10T14:17:48.500Z,22.80
2022-11-10T14:20:44.725Z,22.80
2022-11-10T14:23:39.016Z,22.80
2022-11-10T14:26:33.798Z,22.80
2022-11-10T14:29:38.867Z,22.80
2022-11-10T14:32:26.887Z,22.80
2022-11-10T14:35:26.131Z,22.80
2022-11-10T14:38:21.963Z,22.80
2022-11-10T14:41:19.076Z,22.70
2022-11-10T14:44:12.100Z,22.80
2022-11-10T14:47:16.151Z,22.70
2022-11-10T14:50:18.828Z,22.80
2022-11-10T14:53:13.980Z,22.80
2022-11-10T14:56:05.475Z,22.80
2022-11-10T14:58:53.620Z,22.90
2022-11-10T15:01:49.548Z,23.00
2022-11-10T15:04:38.489Z,23.10
2022-11-10T15:07:26.423Z,23.10
2022-11-10T15:10:20.256Z,23.20
2022-11-10T15:13:21.026Z,23.30
2022-11-10T15:16:26.507Z,23.30
2022-11-10T15:19:27.719Z,23.30
2022-11-10T15:22:21.036Z,23.40
2022-11-10T15:25:17.828Z,23.40
2022-11-10T15:28:24.305Z,23.30
2022-11-10T15:31:15.236Z,23.40
2022-11-10T15:34:12.382Z,23.40
2022-11-10T15:37:29.080Z,23.40
2022-11-10T15:40:37.645Z,23.40
2022-11-10T15:43:29.500Z,23.40
2022-11-10T15:46:19.481Z,23.40
2022-11-10T15:49:14.413Z,23.40
2022-11-10T15:52:04.014Z,23.40
2022-11-10T15:54:51.755Z,23.40
2022-11-10T15:57:38.754Z,23.40
2022-11-10T16:00:27.917Z,23.20
2022-11-10T16:03:18.262Z,23.50
2022-11-10T16:06:05.377Z,23.50
2022-11-10T16:08:52.342Z,23.50
2022-11-10T16:11:41.910Z,23.50
2022-11-10T16:14:29.739Z,23.50
2022-11-10T16:17:19.060Z,23.50
2022-11-10T16:20:15.008Z,23.50
2022-11-10T16:23:02.175Z,23.60
2022-11-10T16:25:52.574Z,23.50
2022-11-10T16:28:39.909Z,23.40
2022-11-10T16:31:29.261Z,23.40
2022-11-10T16:34:17.634Z,23.40
2022-11-10T16:37:04.623Z,23.40
2022-11-10T16:39:51.849Z,23.40
2022-11-10T16:42:38.987Z,23.40
2022-11-10T16:45:30.228Z,23.40
2022-11-10T16:48:19.952Z,23.40
2022-11-10T16:51:08.495Z,23.40
2022-11-10T16:53:55.588Z,23.40
2022-11-10T16:56:42.652Z,23.40
2022-11-10T16:59:30.789Z,23.40
2022-11-10T17:02:29.936Z,23.30
2022-11-10T17:05:17.225Z,23.40
2022-11-10T17:08:06.280Z,23.40
2022-11-10T17:10:56.723Z,23.40
2022-11-10T17:13:44.595Z,23.40
2022-11-10T17:16:37.131Z,23.40
2022-11-10T17:19:27.547Z,23.30
2022-11-10T17:22:18.917Z,23.40
2022-11-10T17:25:14.474Z,23.40
2022-11-10T17:28:01.938Z,23.40
2022-11-10T17:30:48.894Z,23.40
2022-11-10T17:33:36.046Z,23.40
2022-11-10T17:36:27.654Z,23.30
2022-11-10T17:39:16.201Z,23.30
2022-11-10T17:42:04.935Z,23.30
2022-11-10T17:44:52.056Z,23.30
2022-11-10T17:47:39.724Z,23.30
2022-11-10T17:50:27.833Z,23.30
2022-11-10T17:53:21.287Z,23.30
2022-11-10T17:56:09.289Z,23.30
2022-11-10T17:58:58.274Z,23.30
2022-11-10T18:01:45.137Z,23.30
2022-11-10T18:04:32.478Z,23.40
2022-11-10T18:07:19.258Z,23.40
2022-11-10T18:10:08.393Z,23.40
2022-11-10T18:12:55.334Z,23.50
2022-11-10T18:15:45.095Z,23.60
2022-11-10T18:18:32.301Z,23.50
2022-11-10T18:21:19.351Z,23.50
2022-11-10T18:24:06.502Z,23.50
2022-11-10T18:26:53.684Z,23.50
2022-11-10T18:29:41.620Z,23.60
2022-11-10T18:32:30.506Z,23.50
2022-11-10T18:35:18.079Z,23.60
2022-11-10T18:38:05.619Z,23.40
2022-11-10T18:40:53.434Z,23.40
2022-11-10T18:43:40.448Z,23.40
2022-11-10T18:46:27.895Z,23.40
2022-11-10T18:49:16.624Z,23.40
2022-11-10T18:52:03.996Z,23.40
2022-11-10T18:54:50.837Z,23.30
2022-11-10T18:57:37.619Z,23.40
2022-11-10T19:00:25.415Z,23.50
2022-11-10T19:03:12.564Z,23.30
2022-11-10T19:06:00.901Z,23.30
2022-11-10T19:08:48.671Z,23.30
2022-11-10T19:11:36.101Z,23.30
2022-11-10T19:14:24.048Z,23.20
2022-11-10T19:17:11.442Z,23.20
2022-11-10T19:19:58.655Z,23.20
2022-11-10T19:22:46.910Z,23.30
2022-11-10T19:25:36.859Z,23.30
2022-11-10T19:28:28.150Z,23.30
2022-11-10T19:31:18.149Z,23.40
2022-11-10T19:34:04.923Z,23.20
2022-11-10T19:36:53.169Z,23.20
2022-11-10T19:39:42.150Z,23.10
2022-11-10T19:42:29.522Z,23.20
2022-11-10T19:45:16.788Z,23.20
2022-11-10T19:48:03.844Z,23.20
2022-11-10T19:50:55.284Z,23.20
2022-11-10T19:53:43.219Z,23.10
2022-11-10T19:56:35.591Z,23.10
2022-11-10T19:59:22.405Z,23.20
2022-11-10T20:02:13.470Z,23.10
2022-11-10T20:05:17.372Z,23.10
2022-11-10T20:08:12.449Z,23.10
2022-11-10T20:11:02.447Z,23.10
2022-11-10T20:13:55.234Z,23.10
2022-11-10T20:16:42.643Z,23.10
2022-11-10T20:19:29.492Z,23.10
2022-11-10T20:22:16.578Z,23.10
2022-11-10T20:25:03.662Z,23.10
2022-11-10T20:27:50.644Z,23.10
2022-11-10T20:30:43.596Z,23.10
2022-11-10T20:33:31.629Z,23.10
2022-11-10T20:36:21.244Z,23.20
2022-11-10T20:39:08.445Z,23.20
2022-11-10T20:41:55.297Z,23.20
2022-11-10T20:44:42.607Z,23.30
2022-11-10T20:47:31.012Z,23.30
2022-11-10T20:50:23.093Z,23.30
2022-11-10T20:53:11.383Z,23.30
2022-11-10T20:56:02.100Z,23.30
2022-11-10T20:58:51.885Z,23.30
2022-11-10T21:01:39.175Z,23.30
2022-11-10T21:04:27.636Z,23.30
2022-11-10T21:07:14.845Z,23.30
2022-11-10T21:10:01.689Z,23.30
2022-11-10T21:12:51.745Z,23.30
2022-11-10T21:15:40.430Z,23.40
2022-11-10T21:18:30.355Z,23.40
2022-11-10T21:21:23.978Z,23.40
2022-11-10T21:24:11.708Z,23.40
2022-11-10T21:26:59.428Z,23.30
2022-11-10T21:29:46.446Z,23.30
2022-11-10T21:32:35.160Z,23.30
2022-11-10T21:35:22.601Z,23.20
2022-11-10T21:38:13.278Z,23.20
2022-11-10T21:41:00.098Z,23.20
2022-11-10T21:43:46.966Z,23.20
2022-11-10T21:46:33.906Z,23.20
2022-11-10T21:49:21.120Z,23.10
2022-11-10T21:52:08.143Z,23.10
2022-11-10T21:54:56.527Z,23.20
2022-11-10T21:57:43.689Z,23.10
2022-11-10T22:00:30.703Z,23.10
2022-11-10T22:03:17.467Z,23.10
2022-11-10T22:06:05.849Z,23.10
2022-11-10T22:08:52.845Z,23.10
2022-11-10T22:11:58.196Z,23.10
2022-11-10T22:15:17.424Z,23.10
2022-11-10T22:18:22.099Z,23.20
2022-11-10T22:21:10.630Z,23.10
2022-11-10T22:24:14.723Z,23.10
2022-11-10T22:27:05.074Z,23.10
2022-11-10T22:29:52.487Z,23.00
2022-11-10T22:32:39.325Z,22.80
2022-11-10T22:35:44.708Z,22.90
2022-11-10T22:38:35.070Z,23.00
2022-11-10T22:41:39.218Z,23.00
2022-11-10T22:44:28.028Z,23.00
2022-11-10T22:47:15.304Z,23.10
2022-11-10T22:50:02.225Z,23.10
2022-11-10T22:52:49.470Z,23.10
2022-11-10T22:55:36.583Z,23.10
2022-11-10T22:58:26.666Z,23.00
2022-11-10T23:01:15.691Z,23.00
2022-11-10T23:04:03.219Z,23.00
2022-11-10T23:06:50.488Z,23.10
2022-11-10T23:09:37.724Z,23.00
2022-11-10T23:12:24.727Z,23.00
2022-11-10T23:15:12.180Z,23.00
2022-11-10T23:18:06.284Z,23.00
2022-11-10T23:20:59.240Z,23.00
2022-11-10T23:23:47.321Z,23.00
2022-11-10T23:26:34.932Z,23.00
2022-11-10T23:29:22.129Z,23.00
2022-11-10T23:32:09.244Z,23.00
2022-11-10T23:34:57.981Z,23.00
2022-11-10T23:37:45.449Z,23.00
2022-11-10T23:40:32.295Z,23.00
2022-11-10T23:43:19.262Z,23.00
2022-11-10T23:46:08.080Z,23.00
2022-11-10T23:48:55.218Z,23.00
2022-11-10T23:51:43.644Z,22.90
2022-11-10T23:54:31.208Z,23.00
2022-11-10T23:57:18.209Z,23.00
